Terminal Aerodrome Forecast
Issued by NWS

Home | Current Version | Previous Version | Graphics & Text | Print | Product List | Glossary On
Versions: 1 2 3 4 5 6 7 8 9 10 11 12 13 14 15
000
FTUS43 KTOP 261131
TAFFOE
TAF
KFOE 261131Z 2612/2712 19005KT P6SM BKN150
     FM261500 22007KT P6SM VCSH BKN120
     FM261900 VRB04KT P6SM VCTS SCT060CB BKN090
     FM270000 03005KT P6SM BKN130=

USA.gov is the U.S. government's official web portal to all federal, state and local government web resources and services.